Airfield :
LOGIN :

Register | Disclaimer

   EN    FR    IT 

 










Legend :    VFR   Marginal VFR   IFR   Intensive IFR   Very Intensive IFR
Visi :
Ceiling :
>= 8 km
>= 3000ft
5 to 8 km
1000 to 3000 ft
1500m to 5 km
500 to 1000 ft
800 to 1500m
200 to 500 ft
< 800m
< 200 ft
Symbols :   Thunderstorms  Fog  Heavy snow  Heavy precipitations  Wind > 20 kt
SIGMETs :     Misc.  Thunderstorms  Icing  Turbulence  Mountain Waves  Volcanic Ashes







- Airport Elevation : 464 ft
- IATA code : EVX
- Download approach charts


LFOE - Evreux

CURRENT METAR :
  • 222330Z AUTO 29002KT CAVOK 15/13 Q1017

EXPIRED METARs :
  • 222300Z AUTO 29003KT 260V320 CAVOK 15/13 Q1017
  • 222230Z AUTO 30004KT CAVOK 16/13 Q1017
  • 222200Z AUTO 32004KT 290V350 CAVOK 16/13 Q1017
  • 222130Z AUTO 32006KT 290V350 CAVOK 17/13 Q1017
  • 222100Z AUTO 31005KT 280V340 CAVOK 17/13 Q1017

TAF TAF LFOE
Valid from the 22 at 21:00 until the 23 at 21:00 UTC


222000Z 2221/2321 31008KT CAVOK
TEMPO 2303/2306 BKN010
TEMPO 2309/2321 30010G20KT
No reported NOTAMs for that airfield.



MET'MAP, your aeronautical weather chart ! - Copyright ORBIFLY December 2007 - Disclaimer

ORBIFLY MET'MAP TEAM :

Programming & Development : Alexandra Zaïnal
Concept & Development : Baudouin d'Aumeries
Co-Development & Prog : Marc-Olivier Méhu
Technical & hardware support : Manuel Goepfert

Contact : metmap@orbifly.com




SOURCES & CREDITS :

   NOAA